createdAt,value
2022-10-06T00:00:38.460Z,100.00
2022-10-06T00:03:05.140Z,100.00
2022-10-06T00:05:31.783Z,100.00
2022-10-06T00:07:58.835Z,100.00
2022-10-06T00:10:25.335Z,100.00
2022-10-06T00:12:52.789Z,100.00
2022-10-06T00:15:23.083Z,100.00
2022-10-06T00:17:51.015Z,100.00
2022-10-06T00:20:18.086Z,100.00
2022-10-06T00:22:47.359Z,100.00
2022-10-06T00:25:16.573Z,100.00
2022-10-06T00:27:47.207Z,100.00
2022-10-06T00:30:19.572Z,100.00
2022-10-06T00:33:03.097Z,100.00
2022-10-06T00:35:33.585Z,100.00
2022-10-06T00:38:01.320Z,100.00
2022-10-06T00:40:28.721Z,100.00
2022-10-06T00:43:03.594Z,100.00
2022-10-06T00:45:48.224Z,100.00
2022-10-06T00:48:32.399Z,100.00
2022-10-06T00:50:59.572Z,100.00
2022-10-06T00:53:31.870Z,100.00
2022-10-06T00:55:58.558Z,100.00
2022-10-06T00:58:25.539Z,100.00
2022-10-06T01:00:54.685Z,100.00
2022-10-06T01:03:24.017Z,100.00
2022-10-06T01:05:51.896Z,100.00
2022-10-06T01:08:19.254Z,100.00
2022-10-06T01:10:45.939Z,100.00
2022-10-06T01:13:14.155Z,100.00
2022-10-06T01:15:47.832Z,100.00
2022-10-06T01:18:18.640Z,100.00
2022-10-06T01:20:58.702Z,100.00
2022-10-06T01:23:25.798Z,100.00
2022-10-06T01:25:52.970Z,100.00
2022-10-06T01:28:19.773Z,100.00
2022-10-06T01:30:52.712Z,100.00
2022-10-06T01:33:20.833Z,100.00
2022-10-06T01:35:51.104Z,100.00
2022-10-06T01:38:18.537Z,100.00
2022-10-06T01:40:46.041Z,100.00
2022-10-06T01:43:12.616Z,100.00
2022-10-06T01:45:39.219Z,100.00
2022-10-06T01:48:06.932Z,100.00
2022-10-06T01:50:33.513Z,100.00
2022-10-06T01:53:00.046Z,100.00
2022-10-06T01:55:27.240Z,100.00
2022-10-06T01:57:53.913Z,100.00
2022-10-06T02:00:20.465Z,100.00
2022-10-06T02:02:47.167Z,100.00
2022-10-06T02:05:14.765Z,100.00
2022-10-06T02:07:41.435Z,100.00
2022-10-06T02:10:08.386Z,100.00
2022-10-06T02:12:35.150Z,100.00
2022-10-06T02:15:02.341Z,100.00
2022-10-06T02:17:29.397Z,100.00
2022-10-06T02:19:56.050Z,100.00
2022-10-06T02:22:22.656Z,100.00
2022-10-06T02:24:49.349Z,100.00
2022-10-06T02:27:15.963Z,100.00
2022-10-06T02:29:42.531Z,100.00
2022-10-06T02:32:09.093Z,100.00
2022-10-06T02:34:35.649Z,100.00
2022-10-06T02:37:02.237Z,100.00
2022-10-06T02:39:28.824Z,100.00
2022-10-06T02:41:55.793Z,100.00
2022-10-06T02:44:23.245Z,100.00
2022-10-06T02:46:50.005Z,100.00
2022-10-06T02:49:16.732Z,100.00
2022-10-06T02:51:43.265Z,100.00
2022-10-06T02:54:10.016Z,100.00
2022-10-06T02:56:37.975Z,100.00
2022-10-06T02:59:04.520Z,100.00
2022-10-06T03:01:31.205Z,100.00
2022-10-06T03:03:57.851Z,100.00
2022-10-06T03:06:29.991Z,100.00
2022-10-06T03:09:02.168Z,100.00
2022-10-06T03:11:33.965Z,100.00
2022-10-06T03:14:00.991Z,100.00
2022-10-06T03:16:36.086Z,100.00
2022-10-06T03:19:03.573Z,100.00
2022-10-06T03:21:32.135Z,100.00
2022-10-06T03:23:59.448Z,100.00
2022-10-06T03:26:28.867Z,100.00
2022-10-06T03:28:56.426Z,100.00
2022-10-06T03:31:23.785Z,100.00
2022-10-06T03:33:51.370Z,100.00
2022-10-06T03:36:20.390Z,100.00
2022-10-06T03:38:47.472Z,100.00
2022-10-06T03:41:16.933Z,100.00
2022-10-06T03:43:45.554Z,100.00
2022-10-06T03:46:14.385Z,100.00
2022-10-06T03:48:40.936Z,100.00
2022-10-06T03:51:11.704Z,100.00
2022-10-06T03:53:38.996Z,100.00
2022-10-06T03:56:10.936Z,100.00
2022-10-06T03:58:41.145Z,100.00
2022-10-06T04:01:12.090Z,100.00
2022-10-06T04:03:38.690Z,100.00
2022-10-06T04:06:07.250Z,100.00
2022-10-06T04:08:35.253Z,100.00
2022-10-06T04:11:23.631Z,100.00
2022-10-06T04:13:56.733Z,100.00
2022-10-06T04:16:26.373Z,100.00
2022-10-06T04:18:55.105Z,100.00
2022-10-06T04:21:22.580Z,100.00
2022-10-06T04:23:49.437Z,100.00
2022-10-06T04:26:18.525Z,100.00
2022-10-06T04:28:46.170Z,100.00
2022-10-06T04:31:24.759Z,100.00
2022-10-06T04:33:53.820Z,100.00
2022-10-06T04:36:26.768Z,100.00
2022-10-06T04:38:58.901Z,100.00
2022-10-06T04:41:33.661Z,100.00
2022-10-06T04:44:00.986Z,100.00
2022-10-06T04:46:42.548Z,100.00
2022-10-06T04:49:13.396Z,100.00
2022-10-06T04:51:44.579Z,100.00
2022-10-06T04:54:11.396Z,100.00
2022-10-06T04:56:38.036Z,100.00
2022-10-06T04:59:04.601Z,100.00
2022-10-06T05:01:36.774Z,100.00
2022-10-06T05:04:06.090Z,100.00
2022-10-06T05:06:41.503Z,100.00
2022-10-06T05:09:13.505Z,100.00
2022-10-06T05:11:40.398Z,100.00
2022-10-06T05:14:07.460Z,100.00
2022-10-06T05:16:34.609Z,100.00
2022-10-06T05:19:01.338Z,100.00
2022-10-06T05:21:30.012Z,100.00
2022-10-06T05:23:56.992Z,100.00
2022-10-06T05:26:27.227Z,100.00
2022-10-06T05:28:53.840Z,100.00
2022-10-06T05:31:23.458Z,100.00
2022-10-06T05:33:50.154Z,100.00
2022-10-06T05:36:18.986Z,100.00
2022-10-06T05:38:45.777Z,100.00
2022-10-06T05:41:21.317Z,100.00
2022-10-06T05:43:48.444Z,100.00
2022-10-06T05:46:20.387Z,100.00
2022-10-06T05:48:49.317Z,100.00
2022-10-06T05:51:16.680Z,100.00
2022-10-06T05:53:43.961Z,100.00
2022-10-06T05:56:43.596Z,100.00
2022-10-06T05:59:10.171Z,100.00
2022-10-06T06:01:41.552Z,100.00
2022-10-06T06:04:11.500Z,100.00
2022-10-06T06:06:40.524Z,100.00
2022-10-06T06:09:09.606Z,100.00
2022-10-06T06:11:41.863Z,100.00
2022-10-06T06:14:11.329Z,100.00
2022-10-06T06:16:39.836Z,100.00
2022-10-06T06:19:08.185Z,100.00
2022-10-06T06:21:34.796Z,100.00
2022-10-06T06:24:02.843Z,100.00
2022-10-06T06:26:33.211Z,100.00
2022-10-06T06:29:03.964Z,100.00
2022-10-06T06:31:33.315Z,98.99
2022-10-06T06:34:02.207Z,96.13
2022-10-06T06:36:30.088Z,93.70
2022-10-06T06:38:58.225Z,91.46
2022-10-06T06:41:29.904Z,89.63
2022-10-06T06:43:58.123Z,86.43
2022-10-06T06:46:27.590Z,84.52
2022-10-06T06:48:55.751Z,84.28
2022-10-06T06:51:25.921Z,86.14
2022-10-06T06:53:53.313Z,82.44
2022-10-06T06:56:22.096Z,81.64
2022-10-06T06:58:49.113Z,82.56
2022-10-06T07:01:20.463Z,81.82
2022-10-06T07:03:57.608Z,77.35
2022-10-06T07:06:28.705Z,79.54
2022-10-06T07:08:57.272Z,80.79
2022-10-06T07:11:25.836Z,78.56
2022-10-06T07:14:06.866Z,80.60
2022-10-06T07:16:52.001Z,81.20
2022-10-06T07:19:39.630Z,80.38
2022-10-06T07:22:27.599Z,77.84
2022-10-06T07:25:08.023Z,77.34
2022-10-06T07:27:42.555Z,81.19
2022-10-06T07:30:20.366Z,77.05
2022-10-06T07:32:50.423Z,77.97
2022-10-06T07:35:21.508Z,76.44
2022-10-06T07:37:49.915Z,76.62
2022-10-06T07:40:17.354Z,69.74
2022-10-06T07:42:51.962Z,77.01
2022-10-06T07:45:39.075Z,74.60
2022-10-06T07:48:11.102Z,77.24
2022-10-06T07:50:39.677Z,75.78
2022-10-06T07:53:09.764Z,68.15
2022-10-06T07:55:40.251Z,70.63
2022-10-06T07:58:10.754Z,70.03
2022-10-06T08:00:37.637Z,74.70
2022-10-06T08:03:04.341Z,74.32
2022-10-06T08:05:32.362Z,71.24
2022-10-06T08:07:58.784Z,59.45
2022-10-06T08:10:25.802Z,77.25
2022-10-06T08:12:52.426Z,73.64
2022-10-06T08:15:19.501Z,63.20
2022-10-06T08:17:46.277Z,57.64
2022-10-06T08:21:05.491Z,55.85
2022-10-06T08:23:32.114Z,57.81
2022-10-06T08:25:58.619Z,64.59
2022-10-06T08:28:25.254Z,67.92
2022-10-06T08:30:52.481Z,58.29
2022-10-06T08:33:21.573Z,71.19
2022-10-06T08:35:48.428Z,58.27
2022-10-06T08:38:15.227Z,56.73
2022-10-06T08:40:44.128Z,58.37
2022-10-06T08:43:18.998Z,60.78
2022-10-06T08:45:47.661Z,60.41
2022-10-06T08:48:20.409Z,61.38
2022-10-06T08:51:00.786Z,57.65
2022-10-06T08:53:30.390Z,59.67
2022-10-06T08:56:28.058Z,63.83
2022-10-06T08:58:58.457Z,58.78
2022-10-06T09:01:28.362Z,60.79
2022-10-06T09:04:01.656Z,63.38
2022-10-06T09:06:31.539Z,53.22
2022-10-06T09:09:06.819Z,49.92
2022-10-06T09:12:18.400Z,53.19
2022-10-06T09:15:03.363Z,55.13
2022-10-06T09:17:38.932Z,53.46
2022-10-06T09:20:17.696Z,53.74
2022-10-06T09:22:46.166Z,55.28
2022-10-06T09:25:20.346Z,54.46
2022-10-06T09:27:54.036Z,54.14
2022-10-06T09:30:20.765Z,52.87
2022-10-06T09:32:53.863Z,51.81
2022-10-06T09:35:23.704Z,49.84
2022-10-06T09:38:08.658Z,48.62
2022-10-06T09:40:51.886Z,53.43
2022-10-06T09:43:29.607Z,51.97
2022-10-06T09:46:28.510Z,49.72
2022-10-06T09:49:17.363Z,46.78
2022-10-06T09:52:15.049Z,48.88
2022-10-06T09:54:45.184Z,48.89
2022-10-06T09:57:19.881Z,54.77
2022-10-06T09:59:47.921Z,49.39
2022-10-06T10:02:24.892Z,49.13
2022-10-06T10:04:55.455Z,53.38
2022-10-06T10:07:27.724Z,47.80
2022-10-06T10:10:12.657Z,51.01
2022-10-06T10:12:53.403Z,49.93
2022-10-06T10:15:19.907Z,48.12
2022-10-06T10:17:51.409Z,49.73
2022-10-06T10:20:50.811Z,51.45
2022-10-06T10:23:31.680Z,46.72
2022-10-06T10:26:13.670Z,49.71
2022-10-06T10:28:55.614Z,47.76
2022-10-06T10:31:43.544Z,49.88
2022-10-06T10:34:24.398Z,50.12
2022-10-06T10:36:57.652Z,50.97
2022-10-06T10:39:33.615Z,52.64
2022-10-06T10:42:05.053Z,51.00
2022-10-06T10:44:41.337Z,50.85
2022-10-06T10:47:25.542Z,51.32
2022-10-06T10:50:03.037Z,51.04
2022-10-06T10:52:35.959Z,51.38
2022-10-06T10:55:34.176Z,50.68
2022-10-06T10:58:11.275Z,51.96
2022-10-06T11:00:43.225Z,52.19
2022-10-06T11:03:11.655Z,54.58
2022-10-06T11:05:59.380Z,55.08
2022-10-06T11:08:39.760Z,53.38
2022-10-06T11:11:21.341Z,52.38
2022-10-06T11:13:52.450Z,51.57
2022-10-06T11:16:40.778Z,53.42
2022-10-06T11:19:44.666Z,53.39
2022-10-06T11:22:44.983Z,53.23
2022-10-06T11:25:45.265Z,53.74
2022-10-06T11:28:43.476Z,52.76
2022-10-06T11:31:34.306Z,52.29
2022-10-06T11:34:03.741Z,54.19
2022-10-06T11:36:45.447Z,54.57
2022-10-06T11:39:24.708Z,54.03
2022-10-06T11:42:20.473Z,55.52
2022-10-06T11:44:55.065Z,55.38
2022-10-06T11:47:35.401Z,55.27
2022-10-06T11:50:22.887Z,54.02
2022-10-06T11:52:52.680Z,54.69
2022-10-06T11:55:24.077Z,54.53
2022-10-06T11:58:37.466Z,52.62
2022-10-06T12:01:00.042Z,53.03
2022-10-06T12:03:31.033Z,53.14
2022-10-06T12:05:59.910Z,53.69
2022-10-06T12:08:43.969Z,54.32
2022-10-06T12:11:39.099Z,53.50
2022-10-06T12:16:00.203Z,52.70
2022-10-06T12:17:32.241Z,52.44
2022-10-06T12:20:25.825Z,51.47
2022-10-06T12:22:59.163Z,52.71
2022-10-06T12:25:35.984Z,52.70
2022-10-06T12:28:37.553Z,53.20
2022-10-06T12:31:23.123Z,52.88
2022-10-06T12:39:29.643Z,51.53
2022-10-06T12:42:06.636Z,51.92
2022-10-06T12:44:45.686Z,52.64
2022-10-06T12:47:37.595Z,52.68
2022-10-06T12:50:25.889Z,52.76
2022-10-06T12:53:16.210Z,52.96
2022-10-06T12:55:53.850Z,52.28
2022-10-06T12:58:29.129Z,53.05
2022-10-06T13:01:04.160Z,52.04
2022-10-06T13:03:31.408Z,52.53
2022-10-06T13:06:04.984Z,53.90
2022-10-06T13:08:36.985Z,53.74
2022-10-06T13:11:12.574Z,53.08
2022-10-06T13:13:50.231Z,53.79
2022-10-06T13:16:40.920Z,53.84
2022-10-06T13:19:22.232Z,52.61
2022-10-06T13:21:48.870Z,52.63
2022-10-06T13:24:20.564Z,51.76
2022-10-06T13:26:48.242Z,51.29
2022-10-06T13:29:24.273Z,52.16
2022-10-06T13:31:53.433Z,50.91
2022-10-06T13:34:33.334Z,52.05
2022-10-06T13:37:01.322Z,52.75
2022-10-06T13:39:32.379Z,52.24
2022-10-06T13:42:02.575Z,52.50
2022-10-06T13:44:39.260Z,51.18
2022-10-06T13:47:14.812Z,52.60
2022-10-06T13:49:57.152Z,52.29
2022-10-06T13:52:33.160Z,52.84
2022-10-06T13:55:01.246Z,53.00
2022-10-06T13:57:46.392Z,52.28
2022-10-06T14:00:19.357Z,52.35
2022-10-06T14:02:48.858Z,53.04
2022-10-06T14:05:19.364Z,52.76
2022-10-06T14:07:47.105Z,53.26
2022-10-06T14:10:48.683Z,53.21
2022-10-06T14:13:23.599Z,52.44
2022-10-06T14:15:54.765Z,52.87
2022-10-06T14:18:33.806Z,51.60
2022-10-06T14:21:35.208Z,52.65
2022-10-06T14:24:07.834Z,53.23
2022-10-06T14:26:37.445Z,52.52
2022-10-06T14:29:04.511Z,52.28
2022-10-06T14:31:33.450Z,52.60
2022-10-06T14:34:01.300Z,53.07
2022-10-06T14:36:30.999Z,53.26
2022-10-06T14:38:59.155Z,53.93
2022-10-06T14:41:28.676Z,53.75
2022-10-06T14:43:56.307Z,53.23
2022-10-06T14:46:25.639Z,53.95
2022-10-06T14:48:52.798Z,54.68
2022-10-06T14:51:20.397Z,54.49
2022-10-06T14:53:55.214Z,54.75
2022-10-06T14:56:23.801Z,54.87
2022-10-06T14:58:52.502Z,54.67
2022-10-06T15:01:23.251Z,54.92
2022-10-06T15:03:55.068Z,55.70
2022-10-06T15:06:41.003Z,55.22
2022-10-06T15:09:08.368Z,56.11
2022-10-06T15:11:36.067Z,56.37
2022-10-06T15:14:03.864Z,56.84
2022-10-06T15:16:32.949Z,56.67
2022-10-06T15:19:01.179Z,56.67
2022-10-06T15:21:29.971Z,56.83
2022-10-06T15:24:03.264Z,56.87
2022-10-06T15:26:49.448Z,56.95
2022-10-06T15:29:17.022Z,57.58
2022-10-06T15:31:55.059Z,57.74
2022-10-06T15:34:26.928Z,58.29
2022-10-06T15:36:55.120Z,57.24
2022-10-06T15:39:24.510Z,57.73
2022-10-06T15:41:51.999Z,57.27
2022-10-06T15:44:21.989Z,57.12
2022-10-06T15:46:54.409Z,56.85
2022-10-06T15:49:26.081Z,56.99
2022-10-06T15:51:59.594Z,57.68
2022-10-06T15:54:28.895Z,57.33
2022-10-06T15:56:58.028Z,57.21
2022-10-06T15:59:27.569Z,57.35
2022-10-06T16:02:03.976Z,58.63
2022-10-06T16:04:54.130Z,59.25
2022-10-06T16:07:20.977Z,59.24
2022-10-06T16:09:51.881Z,59.32
2022-10-06T16:12:21.460Z,58.98
2022-10-06T16:14:48.893Z,59.46
2022-10-06T16:17:15.828Z,59.69
2022-10-06T16:19:42.792Z,59.29
2022-10-06T16:22:15.580Z,60.41
2022-10-06T16:24:42.196Z,60.42
2022-10-06T16:27:13.602Z,60.29
2022-10-06T16:29:40.610Z,60.53
2022-10-06T16:32:07.216Z,60.92
2022-10-06T16:34:33.918Z,59.29
2022-10-06T16:37:00.557Z,61.12
2022-10-06T16:39:27.157Z,62.04
2022-10-06T16:41:54.604Z,62.78
2022-10-06T16:44:21.353Z,62.46
2022-10-06T16:46:47.998Z,63.43
2022-10-06T16:49:14.801Z,63.83
2022-10-06T16:51:43.598Z,62.70
2022-10-06T16:54:12.261Z,63.02
2022-10-06T16:56:47.713Z,63.70
2022-10-06T16:59:16.697Z,63.38
2022-10-06T17:01:44.081Z,65.24
2022-10-06T17:04:16.436Z,65.68
2022-10-06T17:06:45.468Z,63.98
2022-10-06T17:09:14.519Z,66.29
2022-10-06T17:11:42.950Z,66.67
2022-10-06T17:14:09.940Z,66.80
2022-10-06T17:16:39.073Z,66.00
2022-10-06T17:19:06.582Z,66.63
2022-10-06T17:21:54.038Z,68.90
2022-10-06T17:24:20.816Z,69.62
2022-10-06T17:26:49.790Z,69.61
2022-10-06T17:29:21.866Z,69.90
2022-10-06T17:31:51.123Z,70.16
2022-10-06T17:34:21.873Z,69.93
2022-10-06T17:36:51.914Z,70.91
2022-10-06T17:39:21.451Z,73.76
2022-10-06T17:41:50.345Z,73.95
2022-10-06T17:44:22.758Z,73.20
2022-10-06T17:46:52.254Z,74.67
2022-10-06T17:49:21.515Z,74.18
2022-10-06T17:51:49.242Z,75.04
2022-10-06T17:54:19.848Z,76.30
2022-10-06T17:56:54.874Z,75.52
2022-10-06T17:59:31.031Z,77.69
2022-10-06T18:02:00.834Z,76.53
2022-10-06T18:04:27.575Z,79.94
2022-10-06T18:06:54.847Z,78.52
2022-10-06T18:09:22.369Z,79.80
2022-10-06T18:11:54.953Z,78.14
2022-10-06T18:14:28.238Z,79.82
2022-10-06T18:16:58.586Z,80.37
2022-10-06T18:19:30.690Z,78.71
2022-10-06T18:22:03.328Z,80.38
2022-10-06T18:24:31.367Z,81.22
2022-10-06T18:27:00.470Z,81.54
2022-10-06T18:29:33.265Z,83.07
2022-10-06T18:32:38.540Z,82.12
2022-10-06T18:37:35.173Z,83.31
2022-10-06T18:40:05.949Z,83.30
2022-10-06T18:42:33.208Z,82.77
2022-10-06T18:45:18.295Z,84.07
2022-10-06T18:48:03.922Z,84.40
2022-10-06T18:50:31.328Z,85.25
2022-10-06T18:52:58.015Z,85.82
2022-10-06T18:55:26.544Z,85.72
2022-10-06T18:57:53.364Z,86.06
2022-10-06T19:00:21.208Z,86.36
2022-10-06T19:02:52.167Z,85.28
2022-10-06T19:05:19.054Z,87.12
2022-10-06T19:07:46.259Z,87.78
2022-10-06T19:10:12.960Z,87.53
2022-10-06T19:12:39.734Z,87.28
2022-10-06T19:15:06.728Z,87.60
2022-10-06T19:17:33.925Z,87.48
2022-10-06T19:20:00.734Z,87.17
2022-10-06T19:22:27.458Z,86.81
2022-10-06T19:24:55.244Z,88.54
2022-10-06T19:27:26.287Z,89.05
2022-10-06T19:29:56.773Z,87.80
2022-10-06T19:32:27.500Z,90.03
2022-10-06T19:34:59.040Z,90.91
2022-10-06T19:37:30.376Z,89.42
2022-10-06T19:39:58.105Z,88.94
2022-10-06T19:42:43.900Z,90.42
2022-10-06T19:45:12.164Z,91.04
2022-10-06T19:47:39.400Z,91.52
2022-10-06T19:50:11.687Z,92.43
2022-10-06T19:52:40.321Z,92.44
2022-10-06T19:55:07.070Z,92.02
2022-10-06T19:57:34.141Z,92.27
2022-10-06T20:00:01.100Z,91.32
2022-10-06T20:02:28.986Z,91.61
2022-10-06T20:04:56.242Z,89.39
2022-10-06T20:07:25.626Z,91.73
2022-10-06T20:09:54.890Z,90.92
2022-10-06T20:12:24.951Z,90.44
2022-10-06T20:14:53.861Z,90.44
2022-10-06T20:17:21.003Z,89.47
2022-10-06T20:19:53.909Z,91.40
2022-10-06T20:22:24.602Z,91.44
2022-10-06T20:25:02.998Z,93.22
2022-10-06T20:27:29.634Z,91.93
2022-10-06T20:29:58.253Z,92.45
2022-10-06T20:35:06.706Z,92.83
2022-10-06T20:37:34.604Z,92.89
2022-10-06T20:40:20.499Z,93.51
2022-10-06T20:42:49.491Z,92.19
2022-10-06T20:45:16.278Z,92.51
2022-10-06T20:47:44.481Z,92.88
2022-10-06T20:50:20.340Z,92.30
2022-10-06T20:52:47.351Z,93.08
2022-10-06T20:55:14.842Z,93.84
2022-10-06T20:57:42.680Z,92.38
2022-10-06T21:00:10.267Z,92.35
2022-10-06T21:02:36.936Z,93.09
2022-10-06T21:05:05.596Z,92.50
2022-10-06T21:07:32.285Z,93.66
2022-10-06T21:09:58.830Z,93.13
2022-10-06T21:12:26.221Z,94.23
2022-10-06T21:14:52.902Z,93.43
2022-10-06T21:17:19.786Z,94.36
2022-10-06T21:19:46.784Z,93.70
2022-10-06T21:22:13.312Z,93.94
2022-10-06T21:24:39.964Z,94.93
2022-10-06T21:27:06.607Z,95.98
2022-10-06T21:29:33.260Z,96.29
2022-10-06T21:32:00.465Z,95.98
2022-10-06T21:34:27.048Z,94.57
2022-10-06T21:36:53.695Z,95.55
2022-10-06T21:39:20.593Z,95.99
2022-10-06T21:41:47.152Z,96.16
2022-10-06T21:44:18.335Z,96.42
2022-10-06T21:46:53.396Z,97.03
2022-10-06T21:49:25.086Z,97.18
2022-10-06T21:51:54.164Z,97.13
2022-10-06T21:54:22.448Z,96.97
2022-10-06T21:56:50.182Z,97.52
2022-10-06T21:59:18.274Z,97.76
2022-10-06T22:01:47.317Z,97.91
2022-10-06T22:04:15.372Z,98.68
2022-10-06T22:06:43.649Z,97.49
2022-10-06T22:09:14.881Z,98.27
2022-10-06T22:11:41.899Z,98.48
2022-10-06T22:14:12.091Z,98.59
2022-10-06T22:16:40.033Z,98.56
2022-10-06T22:19:09.814Z,98.66
2022-10-06T22:21:38.890Z,98.99
2022-10-06T22:24:09.315Z,99.26
2022-10-06T22:26:37.619Z,98.93
2022-10-06T22:29:06.072Z,98.27
2022-10-06T22:31:33.262Z,98.92
2022-10-06T22:34:04.741Z,98.95
2022-10-06T22:36:33.464Z,98.92
2022-10-06T22:39:00.385Z,99.31
2022-10-06T22:41:27.199Z,99.70
2022-10-06T22:43:57.984Z,99.82
2022-10-06T22:46:29.155Z,100.00
2022-10-06T22:48:55.859Z,99.09
2022-10-06T22:51:22.966Z,98.16
2022-10-06T22:53:57.654Z,99.30
2022-10-06T22:56:26.048Z,99.76
2022-10-06T22:58:52.673Z,99.99
2022-10-06T23:01:19.695Z,99.38
2022-10-06T23:03:48.018Z,99.29
2022-10-06T23:06:16.571Z,99.11
2022-10-06T23:08:43.344Z,100.00
2022-10-06T23:11:16.953Z,100.00
2022-10-06T23:13:44.699Z,100.00
2022-10-06T23:16:16.471Z,100.00
2022-10-06T23:18:44.263Z,100.00
2022-10-06T23:21:21.834Z,98.54
2022-10-06T23:23:53.956Z,99.65
2022-10-06T23:26:21.998Z,99.36
2022-10-06T23:28:56.862Z,99.15
2022-10-06T23:31:24.669Z,99.83
2022-10-06T23:33:51.525Z,100.00
2022-10-06T23:36:18.458Z,99.41
2022-10-06T23:38:45.735Z,100.00
2022-10-06T23:41:12.901Z,99.97
2022-10-06T23:43:39.571Z,100.00
2022-10-06T23:46:06.281Z,100.00
2022-10-06T23:48:33.012Z,100.00
2022-10-06T23:51:08.607Z,100.00
2022-10-06T23:53:35.757Z,100.00
2022-10-06T23:56:02.405Z,100.00
2022-10-06T23:58:29.152Z,100.00
